createdAt,value
2022-10-22T00:00:03.776Z,100185.25390625
2022-10-22T00:01:00.929Z,100182.40234375
2022-10-22T00:02:00.882Z,100182.54296875
2022-10-22T00:03:00.655Z,100184.61328125
2022-10-22T00:04:00.566Z,100183.55859375
2022-10-22T00:05:00.648Z,100180.859375
2022-10-22T00:06:00.871Z,100179.49609375
2022-10-22T00:07:00.594Z,100181.7109375
2022-10-22T00:08:00.637Z,100181.17578125
2022-10-22T00:09:00.686Z,100179.75390625
2022-10-22T00:10:00.627Z,100180.2890625
2022-10-22T00:11:06.568Z,100174.2421875
2022-10-22T00:12:00.594Z,100171.0625
2022-10-22T00:13:00.519Z,100172.12890625
2022-10-22T00:14:00.527Z,100174.59765625
2022-10-22T00:15:00.518Z,100169.18359375
2022-10-22T00:16:00.997Z,100165.6875
2022-10-22T00:17:00.881Z,100168.28125
2022-10-22T00:18:00.605Z,100162.53515625
2022-10-22T00:19:00.626Z,100159.6171875
2022-10-22T00:20:00.705Z,100157.578125
2022-10-22T00:21:00.953Z,100154.27734375
2022-10-22T00:22:03.539Z,100152.41015625
2022-10-22T00:23:00.699Z,100151.4453125
2022-10-22T00:24:00.634Z,100151.58203125
2022-10-22T00:25:00.607Z,100155.3046875
2022-10-22T00:26:00.955Z,100158.49609375
2022-10-22T00:27:00.730Z,100162.140625
2022-10-22T00:28:00.502Z,100160.2265625
2022-10-22T00:29:00.582Z,100162.234375
2022-10-22T00:30:00.513Z,100159.10546875
2022-10-22T00:31:00.957Z,100160.57421875
2022-10-22T00:32:00.872Z,100155.33203125
2022-10-22T00:33:03.572Z,100159.28125
2022-10-22T00:34:00.609Z,100156.77734375
2022-10-22T00:35:00.487Z,100157.13671875
2022-10-22T00:36:00.950Z,100154.1953125
2022-10-22T00:37:00.605Z,100155.76171875
2022-10-22T00:38:00.502Z,100153.7265625
2022-10-22T00:39:00.674Z,100157.3671875
2022-10-22T00:40:00.519Z,100152.1796875
2022-10-22T00:42:08.821Z,100150.2109375
2022-10-22T00:43:08.765Z,100150.34765625
2022-10-22T00:44:08.861Z,100145.8125
2022-10-22T00:45:09.211Z,100143.08984375
2022-10-22T00:46:08.906Z,100139.4921875
2022-10-22T00:47:14.929Z,100141.6953125
2022-10-22T00:48:08.847Z,100136.8359375
2022-10-22T00:49:08.778Z,100138.2265625
2022-10-22T00:50:09.134Z,100139.609375
2022-10-22T00:51:08.882Z,100149.51953125
2022-10-22T00:52:08.867Z,100148.11328125
2022-10-22T00:53:08.878Z,100140.9375
2022-10-22T00:54:08.761Z,100143.6796875
2022-10-22T00:55:09.207Z,100141.22265625
2022-10-22T00:56:08.845Z,100142.3984375
2022-10-22T00:57:08.771Z,100142.1796875
2022-10-22T00:58:11.774Z,100142.28515625
2022-10-22T01:00:15.993Z,100139.6015625
2022-10-22T01:01:15.724Z,100140.48046875
2022-10-22T01:02:15.929Z,100141.1640625
2022-10-22T01:03:15.731Z,100145.30859375
2022-10-22T01:04:15.648Z,100144.39453125
2022-10-22T01:05:21.677Z,100141.54296875
2022-10-22T01:06:15.680Z,100138.43359375
2022-10-22T01:07:15.700Z,100137.1953125
2022-10-22T01:08:15.787Z,100141.16015625
2022-10-22T01:09:15.718Z,100142.31640625
2022-10-22T01:10:16.114Z,100139.203125
2022-10-22T01:11:15.637Z,100134.63671875
2022-10-22T01:12:15.627Z,100132.42578125
2022-10-22T01:13:15.773Z,100132.8359375
2022-10-22T01:14:15.812Z,100136.046875
2022-10-22T01:15:16.076Z,100136.0078125
2022-10-22T01:16:18.642Z,100135.68359375
2022-10-22T01:17:16.025Z,100142.16796875
2022-10-22T01:18:15.666Z,100144.21484375
2022-10-22T01:19:15.563Z,100144.2109375
2022-10-22T01:20:15.996Z,100144.4921875
2022-10-22T01:21:15.645Z,100148.734375
2022-10-22T01:22:15.552Z,100150.59375
2022-10-22T01:23:15.572Z,100153.52734375
2022-10-22T01:24:15.701Z,100153.8828125
2022-10-22T01:25:15.926Z,100150.5234375
2022-10-22T01:26:15.725Z,100152.8671875
2022-10-22T01:27:18.695Z,100151.3046875
2022-10-22T01:28:15.685Z,100156.83984375
2022-10-22T01:29:15.692Z,100158.19921875
2022-10-22T01:30:15.998Z,100161.96484375
2022-10-22T01:31:15.747Z,100158.21484375
2022-10-22T01:32:15.999Z,100156.3984375
2022-10-22T01:33:15.706Z,100160.40234375
2022-10-22T01:34:15.564Z,100157.953125
2022-10-22T01:35:15.996Z,100158.28125
2022-10-22T01:36:15.701Z,100164.453125
2022-10-22T01:37:15.592Z,100159.234375
2022-10-22T01:38:18.636Z,100162.75
2022-10-22T01:39:15.634Z,100164.4296875
2022-10-22T01:40:16.218Z,100160.5625
2022-10-22T01:41:15.633Z,100164.171875
2022-10-22T01:42:15.674Z,100165.95703125
2022-10-22T01:43:15.564Z,100166.203125
2022-10-22T01:44:15.575Z,100163.44921875
2022-10-22T01:45:15.998Z,100167.484375
2022-10-22T01:46:15.768Z,100167.1328125
2022-10-22T01:47:15.922Z,100166.3046875
2022-10-22T01:48:15.672Z,100165.31640625
2022-10-22T01:49:18.572Z,100166
2022-10-22T01:50:15.924Z,100169.13671875
2022-10-22T01:51:15.762Z,100172.68359375
2022-10-22T01:52:15.748Z,100170.37109375
2022-10-22T01:53:15.762Z,100172.3671875
2022-10-22T01:54:15.638Z,100181.69140625
2022-10-22T01:55:15.919Z,100184.9296875
2022-10-22T01:56:15.642Z,100179.14453125
2022-10-22T01:57:15.761Z,100180.00390625
2022-10-22T01:58:15.729Z,100183.859375
2022-10-22T01:59:15.697Z,100182.66015625
2022-10-22T02:00:21.610Z,100178.1328125
2022-10-22T02:01:15.758Z,100178.796875
2022-10-22T02:02:16.001Z,100181.859375
2022-10-22T02:03:18.596Z,100184.87890625
2022-10-22T02:04:15.559Z,100182.69140625
2022-10-22T02:05:16.003Z,100174.984375
2022-10-22T02:06:15.666Z,100174.0703125
2022-10-22T02:07:15.550Z,100172.72265625
2022-10-22T02:08:15.558Z,100171.87890625
2022-10-22T02:09:15.714Z,100174.4296875
2022-10-22T02:10:16.003Z,100177.66015625
2022-10-22T02:11:18.816Z,100179.953125
2022-10-22T02:12:15.663Z,100181.26953125
2022-10-22T02:13:15.708Z,100182.69140625
2022-10-22T02:14:15.649Z,100181.53515625
2022-10-22T02:15:16.051Z,100182.3203125
2022-10-22T02:16:15.846Z,100183.55859375
2022-10-22T02:17:15.919Z,100176.36328125
2022-10-22T02:18:15.674Z,100177.62109375
2022-10-22T02:19:15.701Z,100175.7265625
2022-10-22T02:20:16.002Z,100172.5390625
2022-10-22T02:21:15.644Z,100173.94140625
2022-10-22T02:22:18.600Z,100173.55859375
2022-10-22T02:23:15.642Z,100171.1875
2022-10-22T02:24:15.669Z,100175.76171875
2022-10-22T02:25:15.931Z,100177.17578125
2022-10-22T02:26:15.749Z,100180.0625
2022-10-22T02:27:15.712Z,100182.484375
2022-10-22T02:28:15.667Z,100188.9375
2022-10-22T02:29:15.676Z,100193.484375
2022-10-22T02:31:22.823Z,100195.58203125
2022-10-22T02:32:23.323Z,100198.6171875
2022-10-22T02:33:22.859Z,100200.1171875
2022-10-22T02:34:22.888Z,100202.88671875
2022-10-22T02:35:23.145Z,100201.4453125
2022-10-22T02:36:25.924Z,100200.2421875
2022-10-22T02:37:22.958Z,100197.9609375
2022-10-22T02:38:22.901Z,100193.30078125
2022-10-22T02:39:22.738Z,100195.375
2022-10-22T02:40:23.159Z,100196.43359375
2022-10-22T02:41:22.813Z,100203.42578125
2022-10-22T02:42:22.783Z,100195.52734375
2022-10-22T02:43:22.745Z,100195.71484375
2022-10-22T02:44:22.967Z,100199.828125
2022-10-22T02:45:23.198Z,100198.6953125
2022-10-22T02:46:22.901Z,100195.39453125
2022-10-22T02:47:26.192Z,100193.18359375
2022-10-22T02:48:22.833Z,100193.80078125
2022-10-22T02:49:22.824Z,100195.32421875
2022-10-22T02:50:23.174Z,100196.31640625
2022-10-22T02:51:22.946Z,100198.35546875
2022-10-22T02:52:22.828Z,100198.08203125
2022-10-22T02:53:22.789Z,100196.25390625
2022-10-22T02:54:22.766Z,100195.6484375
2022-10-22T02:55:23.185Z,100196.1875
2022-10-22T02:56:22.867Z,100189.0546875
2022-10-22T02:57:22.785Z,100189.48046875
2022-10-22T02:58:26.037Z,100186.6484375
2022-10-22T02:59:22.858Z,100184.4609375
2022-10-22T03:00:23.197Z,100183.69921875
2022-10-22T03:01:22.783Z,100181.90625
2022-10-22T03:02:22.885Z,100180.09375
2022-10-22T03:03:22.828Z,100182.3828125
2022-10-22T03:04:22.874Z,100181.6015625
2022-10-22T03:05:23.229Z,100186.62109375
2022-10-22T03:06:22.968Z,100183.5078125
2022-10-22T03:07:22.871Z,100185.13671875
2022-10-22T03:08:22.955Z,100187.40234375
2022-10-22T03:09:25.894Z,100190.1875
2022-10-22T03:10:23.227Z,100193.91796875
2022-10-22T03:11:22.809Z,100195.21484375
2022-10-22T03:12:22.853Z,100197.30859375
2022-10-22T03:13:22.841Z,100199.265625
2022-10-22T03:14:22.842Z,100197.265625
2022-10-22T03:15:23.158Z,100201.1953125
2022-10-22T03:16:22.741Z,100201.140625
2022-10-22T03:17:23.254Z,100202.046875
2022-10-22T03:18:22.795Z,100204.6171875
2022-10-22T03:19:22.764Z,100205.4921875
2022-10-22T03:20:26.100Z,100204.5234375
2022-10-22T03:21:22.959Z,100208.84375
2022-10-22T03:22:22.744Z,100208.11328125
2022-10-22T03:23:22.770Z,100207.6484375
2022-10-22T03:24:22.824Z,100204.171875
2022-10-22T03:25:23.189Z,100204.921875
2022-10-22T03:26:22.843Z,100206.02734375
2022-10-22T03:27:22.844Z,100203.5390625
2022-10-22T03:28:22.964Z,100202.125
2022-10-22T03:29:22.951Z,100203.15234375
2022-10-22T03:30:23.230Z,100203.3515625
2022-10-22T03:31:25.897Z,100205.4375
2022-10-22T03:32:22.830Z,100208.23828125
2022-10-22T03:33:22.862Z,100211.4296875
2022-10-22T03:34:22.812Z,100215.16015625
2022-10-22T03:35:23.112Z,100214.078125
2022-10-22T03:36:22.885Z,100218.28515625
2022-10-22T03:37:22.834Z,100217.21875
2022-10-22T03:38:22.906Z,100224.68359375
2022-10-22T03:39:23.124Z,100233.18359375
2022-10-22T03:40:22.846Z,100236.85546875
2022-10-22T03:41:22.827Z,100238.0390625
2022-10-22T03:42:25.732Z,100238.8046875
2022-10-22T03:43:22.834Z,100241.94140625
2022-10-22T03:44:23.113Z,100242.86328125
2022-10-22T03:45:22.747Z,100240.8046875
2022-10-22T03:46:22.788Z,100244.55859375
2022-10-22T03:47:25.240Z,100246.07421875
2022-10-22T03:48:22.910Z,100244.88671875
2022-10-22T03:49:23.186Z,100249.8671875
2022-10-22T03:50:22.821Z,100251.5078125
2022-10-22T03:51:22.857Z,100258.00390625
2022-10-22T03:52:22.740Z,100257.28125
2022-10-22T03:53:25.784Z,100256.23046875
2022-10-22T03:54:23.140Z,100257.90234375
2022-10-22T03:55:22.836Z,100254.0234375
2022-10-22T03:56:22.927Z,100255.8359375
2022-10-22T03:57:22.822Z,100252.8671875
2022-10-22T03:58:22.743Z,100249.05078125
2022-10-22T03:59:23.125Z,100252.125
2022-10-22T04:00:22.727Z,100252.87890625
2022-10-22T04:01:22.809Z,100250.66015625
2022-10-22T04:02:23.234Z,100255.73046875
2022-10-22T04:03:22.835Z,100260.3984375
2022-10-22T04:04:28.797Z,100269.69921875
2022-10-22T04:05:22.980Z,100269.171875
2022-10-22T04:06:22.955Z,100271.66796875
2022-10-22T04:07:22.886Z,100273.3671875
2022-10-22T04:08:22.925Z,100273.046875
2022-10-22T04:09:23.185Z,100275.2734375
2022-10-22T04:10:22.895Z,100274.55078125
2022-10-22T04:11:22.754Z,100273.34765625
2022-10-22T04:12:22.874Z,100276.78125
2022-10-22T04:13:22.827Z,100278.18359375
2022-10-22T04:14:23.186Z,100275.5234375
2022-10-22T04:15:25.790Z,100278.71875
2022-10-22T04:16:25.051Z,100281.8984375
2022-10-22T04:17:23.274Z,100283.46484375
2022-10-22T04:18:22.816Z,100283.796875
2022-10-22T04:19:23.111Z,100279.421875
2022-10-22T04:20:22.742Z,100279.73828125
2022-10-22T04:21:22.726Z,100283.8046875
2022-10-22T04:22:22.857Z,100285.10546875
2022-10-22T04:23:22.853Z,100286.5390625
2022-10-22T04:24:23.212Z,100287.39453125
2022-10-22T04:25:22.974Z,100288.34375
2022-10-22T04:26:25.891Z,100292.5
2022-10-22T04:27:22.979Z,100294.98046875
2022-10-22T04:28:22.933Z,100297.95703125
2022-10-22T04:29:23.237Z,100296.765625
2022-10-22T04:30:22.900Z,100299.4375
2022-10-22T04:31:22.900Z,100301.58203125
2022-10-22T04:32:23.266Z,100300.71484375
2022-10-22T04:33:22.762Z,100304.2578125
2022-10-22T04:34:23.195Z,100302.12890625
2022-10-22T04:35:22.859Z,100304.72265625
2022-10-22T04:36:22.759Z,100303.80859375
2022-10-22T04:37:25.775Z,100299.203125
2022-10-22T04:38:22.827Z,100297.76171875
2022-10-22T04:39:23.183Z,100294.09765625
2022-10-22T04:40:22.960Z,100293.6640625
2022-10-22T04:41:22.906Z,100296.32421875
2022-10-22T04:42:22.973Z,100294.19921875
2022-10-22T04:43:22.836Z,100298.6171875
2022-10-22T04:44:23.187Z,100295.0234375
2022-10-22T04:45:22.924Z,100296.65625
2022-10-22T04:46:22.854Z,100299.5234375
2022-10-22T04:47:23.421Z,100292.203125
2022-10-22T04:48:25.805Z,100295.31640625
2022-10-22T04:49:23.125Z,100297.87109375
2022-10-22T04:50:22.968Z,100301.3984375
2022-10-22T04:51:22.886Z,100303.17578125
2022-10-22T04:52:22.808Z,100302.859375
2022-10-22T04:53:22.836Z,100300.71875
2022-10-22T04:54:23.534Z,100292.94921875
2022-10-22T04:55:22.785Z,100293.98046875
2022-10-22T04:56:22.782Z,100295.6015625
2022-10-22T04:57:22.890Z,100294.52734375
2022-10-22T04:58:22.824Z,100296.98828125
2022-10-22T04:59:25.795Z,100298.26171875
2022-10-22T05:00:22.824Z,100298.7421875
2022-10-22T05:01:22.766Z,100292.4921875
2022-10-22T05:02:23.402Z,100292.87890625
2022-10-22T05:03:22.939Z,100291.62109375
2022-10-22T05:04:23.187Z,100290.3671875
2022-10-22T05:05:22.787Z,100293.953125
2022-10-22T05:06:22.748Z,100292.265625
2022-10-22T05:07:22.946Z,100291.109375
2022-10-22T05:08:22.913Z,100288.8203125
2022-10-22T05:09:22.756Z,100290.015625
2022-10-22T05:10:25.760Z,100291.6015625
2022-10-22T05:11:22.907Z,100294.1171875
2022-10-22T05:12:22.857Z,100294.38671875
2022-10-22T05:13:22.845Z,100291.359375
2022-10-22T05:14:23.115Z,100293.29296875
2022-10-22T05:15:22.833Z,100292.8203125
2022-10-22T05:16:22.762Z,100297.21484375
2022-10-22T05:17:23.359Z,100298.5703125
2022-10-22T05:18:23.919Z,100300.2421875
2022-10-22T05:19:22.923Z,100305.95703125
2022-10-22T05:20:22.766Z,100307.625
2022-10-22T05:21:25.846Z,100312.03515625
2022-10-22T05:22:23.088Z,100313.73046875
2022-10-22T05:23:22.917Z,100310.671875
2022-10-22T05:24:22.756Z,100311.39453125
2022-10-22T05:25:22.901Z,100316.19921875
2022-10-22T05:26:24.219Z,100316.8828125
2022-10-22T05:27:22.870Z,100318.2265625
2022-10-22T05:28:22.747Z,100322.1171875
2022-10-22T05:29:22.889Z,100323.70703125
2022-10-22T05:30:22.932Z,100325.3515625
2022-10-22T05:31:22.742Z,100328.6328125
2022-10-22T05:32:25.904Z,100327.27734375
2022-10-22T05:33:24.148Z,100330.36328125
2022-10-22T05:34:23.123Z,100330.73828125
2022-10-22T05:35:22.758Z,100329.15234375
2022-10-22T05:36:22.741Z,100328.94140625
2022-10-22T05:37:22.754Z,100327.20703125
2022-10-22T05:38:22.859Z,100331.47265625
2022-10-22T05:39:23.241Z,100329.3515625
2022-10-22T05:40:30.471Z,100331.00390625
2022-10-22T05:41:22.847Z,100330.42578125
2022-10-22T05:42:22.876Z,100331.125
2022-10-22T05:43:25.909Z,100329.1875
2022-10-22T05:44:22.922Z,100332.17578125
2022-10-22T05:45:22.906Z,100331.84375
2022-10-22T05:46:23.255Z,100334.75390625
2022-10-22T05:47:23.366Z,100335.48046875
2022-10-22T05:48:23.008Z,100338.2421875
2022-10-22T05:49:23.191Z,100338.421875
2022-10-22T05:50:22.858Z,100341.87109375
2022-10-22T05:51:22.852Z,100342.03515625
2022-10-22T05:52:22.758Z,100343.66015625
2022-10-22T05:53:22.848Z,100343.109375
2022-10-22T05:54:25.861Z,100342.65234375
2022-10-22T05:55:22.862Z,100343.97265625
2022-10-22T05:56:22.870Z,100350.23046875
2022-10-22T05:57:22.850Z,100352.68359375
2022-10-22T05:58:22.962Z,100350.02734375
2022-10-22T05:59:22.975Z,100347.625
2022-10-22T06:00:22.849Z,100349.109375
2022-10-22T06:01:22.902Z,100349.8203125
2022-10-22T06:02:23.340Z,100347.6171875
2022-10-22T06:03:22.825Z,100349.65234375
2022-10-22T06:04:23.198Z,100352.4765625
2022-10-22T06:05:25.810Z,100352.5625
2022-10-22T06:06:22.868Z,100356.33984375
2022-10-22T06:07:22.871Z,100354.8515625
2022-10-22T06:08:22.759Z,100352.45703125
2022-10-22T06:09:23.289Z,100353.5546875
2022-10-22T06:10:22.821Z,100357.8046875
2022-10-22T06:11:22.736Z,100358.8515625
2022-10-22T06:12:22.755Z,100362.91796875
2022-10-22T06:13:22.743Z,100362.99609375
2022-10-22T06:14:23.186Z,100364.99609375
2022-10-22T06:15:22.858Z,100366.33984375
2022-10-22T06:16:25.731Z,100370.875
2022-10-22T06:17:22.962Z,100369.63671875
2022-10-22T06:18:22.745Z,100372.08984375
2022-10-22T06:19:23.192Z,100373.765625
2022-10-22T06:20:22.910Z,100374.08984375
2022-10-22T06:21:22.861Z,100377.39453125
2022-10-22T06:22:22.911Z,100378.19921875
2022-10-22T06:23:22.887Z,100379.328125
2022-10-22T06:24:22.942Z,100381.78125
2022-10-22T06:25:22.792Z,100380.83984375
2022-10-22T06:26:22.768Z,100382.11328125
2022-10-22T06:27:25.851Z,100384.77734375
2022-10-22T06:29:31.512Z,100387.65625
2022-10-22T06:30:31.140Z,100383.70703125
2022-10-22T06:31:31.156Z,100382.23046875
2022-10-22T06:32:31.479Z,100386.6015625
2022-10-22T06:33:31.249Z,100388.82421875
2022-10-22T06:34:37.183Z,100390.0703125
2022-10-22T06:35:31.098Z,100394.16796875
2022-10-22T06:36:31.274Z,100396.53515625
2022-10-22T06:37:31.119Z,100402.82421875
2022-10-22T06:38:31.051Z,100406.6640625
2022-10-22T06:39:31.471Z,100408.1796875
2022-10-22T06:40:31.141Z,100410.66796875
2022-10-22T06:41:31.012Z,100411.71875
2022-10-22T06:42:31.124Z,100417.1796875
2022-10-22T06:43:31.217Z,100421.08984375
2022-10-22T06:44:31.402Z,100421.03515625
2022-10-22T06:45:34.111Z,100423.12890625
2022-10-22T06:46:31.238Z,100425.19140625
2022-10-22T06:47:31.396Z,100428.0625
2022-10-22T06:48:31.119Z,100426.97265625
2022-10-22T06:49:31.469Z,100424.8125
2022-10-22T06:50:31.255Z,100423.89453125
2022-10-22T06:51:31.140Z,100422.94140625
2022-10-22T06:52:31.096Z,100422.33203125
2022-10-22T06:53:31.139Z,100421.69921875
2022-10-22T06:54:31.734Z,100422.390625
2022-10-22T06:55:31.118Z,100425.87109375
2022-10-22T06:56:34.073Z,100427.1328125
2022-10-22T06:57:31.032Z,100428.92578125
2022-10-22T06:58:31.063Z,100427.90625
2022-10-22T06:59:31.466Z,100430.7265625
2022-10-22T07:00:31.178Z,100432.12109375
2022-10-22T07:01:31.327Z,100430.22265625
2022-10-22T07:02:31.392Z,100433.11328125
2022-10-22T07:03:31.069Z,100436.13671875
2022-10-22T07:04:31.509Z,100435.4765625
2022-10-22T07:05:31.104Z,100436.48046875
2022-10-22T07:06:31.163Z,100440.1015625
2022-10-22T07:07:34.140Z,100444.10546875
2022-10-22T07:08:31.203Z,100445.12109375
2022-10-22T07:09:31.496Z,100443.63671875
2022-10-22T07:10:31.177Z,100447.68359375
2022-10-22T07:11:31.001Z,100448.43359375
2022-10-22T07:12:31.021Z,100449.703125
2022-10-22T07:13:31.040Z,100450.1171875
2022-10-22T07:14:31.055Z,100451.1796875
2022-10-22T07:15:31.402Z,100449.80078125
2022-10-22T07:16:32.347Z,100454.02734375
2022-10-22T07:17:31.514Z,100457.65234375
2022-10-22T07:18:34.069Z,100457.67578125
2022-10-22T07:19:31.388Z,100461.07421875
2022-10-22T07:20:31.050Z,100458.671875
2022-10-22T07:21:31.023Z,100459.98828125
2022-10-22T07:22:31.030Z,100461.4453125
2022-10-22T07:23:31.037Z,100466.0625
2022-10-22T07:24:31.405Z,100464.26953125
2022-10-22T07:25:31.140Z,100468.7890625
2022-10-22T07:26:31.311Z,100469.99609375
2022-10-22T07:27:31.135Z,100468.8359375
2022-10-22T07:28:31.106Z,100470.3203125
2022-10-22T07:29:37.076Z,100470.03125
2022-10-22T07:30:31.230Z,100472.6953125
2022-10-22T07:31:31.209Z,100470.1171875
2022-10-22T07:32:31.168Z,100470.2265625
2022-10-22T07:33:31.148Z,100468.84765625
2022-10-22T07:34:31.464Z,100467.6953125
2022-10-22T07:35:31.154Z,100466.859375
2022-10-22T07:36:32.665Z,100471.9609375
2022-10-22T07:37:31.172Z,100475.49609375
2022-10-22T07:38:31.174Z,100479.4453125
2022-10-22T07:39:31.621Z,100473.70703125
2022-10-22T07:40:34.124Z,100481.98828125
2022-10-22T07:41:30.997Z,100475.484375
2022-10-22T07:42:31.155Z,100478.7265625
2022-10-22T07:43:31.074Z,100488.8203125
2022-10-22T07:44:31.391Z,100486.2421875
2022-10-22T07:45:31.175Z,100491.7109375
2022-10-22T07:46:31.152Z,100491.3359375
2022-10-22T07:47:31.466Z,100494.890625
2022-10-22T07:48:31.178Z,100498.08203125
2022-10-22T07:49:31.464Z,100496.4296875
2022-10-22T07:50:31.294Z,100500.72265625
2022-10-22T07:51:34.127Z,100502.12890625
2022-10-22T07:52:31.129Z,100498.3046875
2022-10-22T07:53:31.146Z,100500.6640625
2022-10-22T07:54:31.430Z,100503.95703125
2022-10-22T07:55:31.131Z,100504.49609375
2022-10-22T07:56:31.041Z,100503.04296875
2022-10-22T07:57:31.168Z,100506.73046875
2022-10-22T07:58:31.026Z,100506.359375
2022-10-22T07:59:31.049Z,100509.78125
2022-10-22T08:00:31.049Z,100510.484375
2022-10-22T08:01:31.395Z,100512.4765625
2022-10-22T08:02:34.447Z,100510.30078125
2022-10-22T08:03:31.208Z,100514.546875
2022-10-22T08:04:31.469Z,100516.87109375
2022-10-22T08:05:31.125Z,100511.90234375
2022-10-22T08:06:31.128Z,100512.90625
2022-10-22T08:07:31.051Z,100512.05078125
2022-10-22T08:08:31.286Z,100511.57421875
2022-10-22T08:09:31.035Z,100510.64453125
2022-10-22T08:10:31.036Z,100513.25
2022-10-22T08:11:30.996Z,100508.390625
2022-10-22T08:12:31.034Z,100508.48828125
2022-10-22T08:13:34.101Z,100513.23828125
2022-10-22T08:14:31.420Z,100512.9921875
2022-10-22T08:15:31.114Z,100511.8359375
2022-10-22T08:16:31.037Z,100514.4375
2022-10-22T08:17:31.464Z,100511.64453125
2022-10-22T08:18:31.087Z,100516.75390625
2022-10-22T08:19:31.397Z,100517.1171875
2022-10-22T08:20:31.147Z,100517.62890625
2022-10-22T08:21:31.178Z,100523.03125
2022-10-22T08:22:31.169Z,100522.9296875
2022-10-22T08:23:31.210Z,100518.87890625
2022-10-22T08:24:34.043Z,100517.7734375
2022-10-22T08:25:31.210Z,100518.06640625
2022-10-22T08:26:31.100Z,100520.20703125
2022-10-22T08:27:31.129Z,100513.328125
2022-10-22T08:28:31.104Z,100515.08203125
2022-10-22T08:29:31.465Z,100516.58984375
2022-10-22T08:30:31.181Z,100515.70703125
2022-10-22T08:31:31.145Z,100515.80078125
2022-10-22T08:32:31.241Z,100518.59765625
2022-10-22T08:33:31.140Z,100517.97265625
2022-10-22T08:34:31.461Z,100523.484375
2022-10-22T08:35:34.059Z,100522.2421875
2022-10-22T08:36:31.099Z,100519.30859375
2022-10-22T08:37:31.144Z,100520.4921875
2022-10-22T08:38:31.036Z,100518.890625
2022-10-22T08:39:31.397Z,100527.6640625
2022-10-22T08:40:31.124Z,100529.99609375
2022-10-22T08:41:31.090Z,100529.17578125
2022-10-22T08:42:31.164Z,100527.0234375
2022-10-22T08:43:31.223Z,100526.66796875
2022-10-22T08:44:31.497Z,100531.51953125
2022-10-22T08:45:31.099Z,100532.62109375
2022-10-22T08:46:34.113Z,100534.01171875
2022-10-22T08:47:31.438Z,100534.5625
2022-10-22T08:48:31.224Z,100537.640625
2022-10-22T08:49:31.443Z,100539.453125
2022-10-22T08:50:31.042Z,100540.3828125
2022-10-22T08:51:31.023Z,100539.1328125
2022-10-22T08:52:31.102Z,100538.19140625
2022-10-22T08:53:31.163Z,100535.67578125
2022-10-22T08:54:31.141Z,100540.08203125
2022-10-22T08:55:36.427Z,100544.546875
2022-10-22T08:56:31.043Z,100542.00390625
2022-10-22T08:57:34.083Z,100546.78125
2022-10-22T08:58:31.220Z,100544.9296875
2022-10-22T08:59:31.468Z,100546.078125
2022-10-22T09:00:31.116Z,100550.6171875
2022-10-22T09:01:31.038Z,100545.66796875
2022-10-22T09:02:31.396Z,100548.45703125
2022-10-22T09:03:31.393Z,100550.8125
2022-10-22T09:04:31.181Z,100549.38671875
2022-10-22T09:05:31.183Z,100549.19140625
2022-10-22T09:06:31.166Z,100550.734375
2022-10-22T09:07:31.240Z,100548.1875
2022-10-22T09:08:37.212Z,100548.3125
2022-10-22T09:09:31.243Z,100549.89453125
2022-10-22T09:10:31.175Z,100549.171875
2022-10-22T09:11:31.103Z,100551.9140625
2022-10-22T09:12:31.136Z,100552.09375
2022-10-22T09:13:31.386Z,100552.26171875
2022-10-22T09:14:31.043Z,100555.3046875
2022-10-22T09:15:31.050Z,100549.48046875
2022-10-22T09:16:31.253Z,100553.1171875
2022-10-22T09:17:31.431Z,100549.4921875
2022-10-22T09:18:31.523Z,100553.0703125
2022-10-22T09:19:34.069Z,100547.15625
2022-10-22T09:20:31.228Z,100545.82421875
2022-10-22T09:21:31.210Z,100548.76171875
2022-10-22T09:22:31.057Z,100555.5234375
2022-10-22T09:23:31.464Z,100551.23046875
2022-10-22T09:24:32.960Z,100546.984375
2022-10-22T09:25:31.134Z,100551.5859375
2022-10-22T09:26:31.162Z,100554.6171875
2022-10-22T09:27:31.130Z,100553.26953125
2022-10-22T09:28:31.392Z,100553.9453125
2022-10-22T09:29:31.188Z,100556.1484375
2022-10-22T09:30:34.107Z,100556.73046875
2022-10-22T09:31:31.206Z,100557.7421875
2022-10-22T09:32:31.460Z,100566.7109375
2022-10-22T09:33:31.387Z,100559.7109375
2022-10-22T09:34:31.136Z,100560.2734375
2022-10-22T09:35:31.168Z,100558.296875
2022-10-22T09:36:31.052Z,100560.4609375
2022-10-22T09:37:31.038Z,100559.66796875
2022-10-22T09:38:31.417Z,100560.671875
2022-10-22T09:39:31.066Z,100560.04296875
2022-10-22T09:40:31.141Z,100558.4296875
2022-10-22T09:41:34.090Z,100560.23046875
2022-10-22T09:42:31.221Z,100565.609375
2022-10-22T09:43:31.407Z,100566.62890625
2022-10-22T09:44:31.117Z,100565.15625
2022-10-22T09:45:31.018Z,100562.40625
2022-10-22T09:46:31.138Z,100563.0078125
2022-10-22T09:47:42.797Z,100564.515625
2022-10-22T09:48:31.142Z,100566.90234375
2022-10-22T09:49:31.491Z,100566.36328125
2022-10-22T09:50:31.209Z,100568.77734375
2022-10-22T09:51:31.129Z,100571.53125
2022-10-22T09:52:34.139Z,100575.53515625
2022-10-22T09:53:31.155Z,100573.59375
2022-10-22T09:54:31.164Z,100576.61328125
2022-10-22T09:55:31.128Z,100578.3359375
2022-10-22T09:56:31.144Z,100581.51953125
2022-10-22T09:57:31.112Z,100581.23828125
2022-10-22T09:58:31.391Z,100579.72265625
2022-10-22T09:59:31.150Z,100578.58984375
2022-10-22T10:00:31.131Z,100577.01171875
2022-10-22T10:01:31.176Z,100577.06640625